Terminal Aerodrome Forecast
Issued by NWS Paducah, KY

Home | Current Version | Previous Version | Text Only | Print | Product List | Glossary On
Versions: 1 2 3 4 5 6 7 8 9 10 11 12 13
321
FTUS43 KPAH 201120
TAFEVV
TAF
KEVV 201120Z 2012/2112 18007KT P6SM SCT025 BKN090
      TEMPO 2012/2015 BKN025
     FM201500 21011KT P6SM SCT030 BKN060
      TEMPO 2016/2020 BKN030
     FM210200 34007KT P6SM OVC020=

USA.gov is the U.S. government's official web portal to all federal, state and local government web resources and services.